createdAt,value
2023-01-19T00:02:16.705Z,5.37
2023-01-19T00:05:18.892Z,5.45
2023-01-19T00:08:21.124Z,4.93
2023-01-19T00:11:24.047Z,5.10
2023-01-19T00:14:26.380Z,5.63
2023-01-19T00:17:28.492Z,5.72
2023-01-19T00:20:35.632Z,4.75
2023-01-19T00:23:37.701Z,5.50
2023-01-19T00:26:43.026Z,5.30
2023-01-19T00:29:45.272Z,5.33
2023-01-19T00:32:47.347Z,6.15
2023-01-19T00:35:53.289Z,6.53
2023-01-19T00:38:55.405Z,6.80
2023-01-19T00:42:16.239Z,6.57
2023-01-19T00:45:20.814Z,2.60
2023-01-19T00:48:23.035Z,5.25
2023-01-19T00:51:25.583Z,5.32
2023-01-19T00:54:27.806Z,3.97
2023-01-19T00:57:29.949Z,5.43
2023-01-19T01:00:32.373Z,4.43
2023-01-19T01:03:34.515Z,5.60
2023-01-19T01:06:36.651Z,5.37
2023-01-19T01:09:39.007Z,5.47
2023-01-19T01:12:41.478Z,4.80
2023-01-19T01:15:58.735Z,4.07
2023-01-19T01:19:00.905Z,2.75
2023-01-19T01:22:02.955Z,4.00
2023-01-19T01:25:05.354Z,3.33
2023-01-19T01:28:08.977Z,2.10
2023-01-19T01:31:11.085Z,1.60
2023-01-19T01:34:13.296Z,3.85
2023-01-19T01:37:15.482Z,2.95
2023-01-19T01:40:18.644Z,3.30
2023-01-19T01:43:20.942Z,1.87
2023-01-19T01:46:23.096Z,3.43
2023-01-19T01:49:25.387Z,3.33
2023-01-19T01:52:29.593Z,3.50
2023-01-19T01:55:35.072Z,2.78
2023-01-19T01:58:39.110Z,3.03
2023-01-19T02:02:00.296Z,3.80
2023-01-19T02:05:09.646Z,4.15
2023-01-19T02:08:49.586Z,2.45
2023-01-19T02:12:12.545Z,3.25
2023-01-19T02:15:17.864Z,2.20
2023-01-19T02:18:23.200Z,1.33
2023-01-19T02:21:43.156Z,0.60
2023-01-19T02:24:45.442Z,1.05
2023-01-19T02:27:48.835Z,0.80
2023-01-19T02:30:51.037Z,0.63
2023-01-19T02:33:54.379Z,1.00
2023-01-19T02:37:13.817Z,1.35
2023-01-19T02:40:22.129Z,2.10
2023-01-19T02:43:25.262Z,1.30
2023-01-19T02:46:27.504Z,1.70
2023-01-19T02:49:30.367Z,1.70
2023-01-19T02:52:32.519Z,2.28
2023-01-19T02:55:34.685Z,1.98
2023-01-19T02:58:57.038Z,2.50
2023-01-19T03:02:47.985Z,4.13
2023-01-19T03:05:59.142Z,2.93
2023-01-19T03:09:20.069Z,2.75
2023-01-19T03:12:46.259Z,2.12
2023-01-19T03:16:14.718Z,2.97
2023-01-19T03:19:44.081Z,2.43
2023-01-19T03:22:50.901Z,1.53
2023-01-19T03:25:54.691Z,2.62
2023-01-19T03:29:00.705Z,4.25
2023-01-19T03:32:09.294Z,4.10
2023-01-19T03:35:14.450Z,3.40
2023-01-19T03:38:25.091Z,3.27
2023-01-19T03:41:28.713Z,2.40
2023-01-19T03:44:35.027Z,3.45
2023-01-19T03:47:37.514Z,3.33
2023-01-19T03:50:39.731Z,4.00
2023-01-19T03:53:42.135Z,1.40
2023-01-19T03:56:44.949Z,3.90
2023-01-19T03:59:47.005Z,2.42
2023-01-19T04:02:49.141Z,1.40
2023-01-19T04:05:51.729Z,2.97
2023-01-19T04:08:54.766Z,4.47
2023-01-19T04:11:57.458Z,3.28
2023-01-19T04:14:59.571Z,3.62
2023-01-19T04:18:01.944Z,3.17
2023-01-19T04:21:07.109Z,2.47
2023-01-19T04:24:10.518Z,2.77
2023-01-19T04:27:12.603Z,2.60
2023-01-19T04:30:15.203Z,3.35
2023-01-19T04:33:17.350Z,2.35
2023-01-19T04:36:19.511Z,2.77
2023-01-19T04:39:23.265Z,3.07
2023-01-19T04:42:25.358Z,2.60
2023-01-19T04:45:27.421Z,2.22
2023-01-19T04:48:29.856Z,2.55
2023-01-19T04:51:32.014Z,1.90
2023-01-19T04:54:34.153Z,3.10
2023-01-19T04:57:36.355Z,3.05
2023-01-19T05:00:41.178Z,5.72
2023-01-19T05:03:43.327Z,3.45
2023-01-19T05:06:45.685Z,2.23
2023-01-19T05:09:48.334Z,2.43
2023-01-19T05:12:51.392Z,2.20
2023-01-19T05:15:53.629Z,2.92
2023-01-19T05:18:55.822Z,2.20
2023-01-19T05:21:58.148Z,3.13
2023-01-19T05:25:01.887Z,2.17
2023-01-19T05:28:04.326Z,2.83
2023-01-19T05:31:06.692Z,2.87
2023-01-19T05:34:11.707Z,2.65
2023-01-19T05:37:14.474Z,2.57
2023-01-19T05:40:16.815Z,3.00
2023-01-19T05:43:18.926Z,3.03
2023-01-19T05:46:21.073Z,3.08
2023-01-19T05:49:23.312Z,3.12
2023-01-19T05:52:25.410Z,2.50
2023-01-19T05:55:28.039Z,2.00
2023-01-19T05:58:30.160Z,4.55
2023-01-19T06:01:38.846Z,3.00
2023-01-19T06:04:42.043Z,3.62
2023-01-19T06:07:44.195Z,2.57
2023-01-19T06:10:46.371Z,1.73
2023-01-19T06:13:48.600Z,3.30
2023-01-19T06:16:50.862Z,2.47
2023-01-19T06:19:53.087Z,1.60
2023-01-19T06:22:58.047Z,2.90
2023-01-19T06:26:00.279Z,2.07
2023-01-19T06:29:02.554Z,3.33
2023-01-19T06:32:04.978Z,2.65
2023-01-19T06:35:08.062Z,3.33
2023-01-19T06:38:10.249Z,3.80
2023-01-19T06:41:12.395Z,4.23
2023-01-19T06:44:14.562Z,4.37
2023-01-19T06:47:16.768Z,3.87
2023-01-19T06:50:18.990Z,3.30
2023-01-19T06:53:22.410Z,3.50
2023-01-19T06:56:24.594Z,2.60
2023-01-19T06:59:27.085Z,3.10
2023-01-19T07:02:29.552Z,3.75
2023-01-19T07:05:31.899Z,3.15
2023-01-19T07:08:35.342Z,4.63
2023-01-19T07:11:37.748Z,4.47
2023-01-19T07:14:39.982Z,4.90
2023-01-19T07:17:42.458Z,4.57
2023-01-19T07:20:46.954Z,2.97
2023-01-19T07:23:50.442Z,3.37
2023-01-19T07:26:52.555Z,4.00
2023-01-19T07:29:54.954Z,2.80
2023-01-19T07:32:58.981Z,3.10
2023-01-19T07:36:01.280Z,3.83
2023-01-19T07:39:03.395Z,3.80
2023-01-19T07:42:06.872Z,3.30
2023-01-19T07:45:09.446Z,4.53
2023-01-19T07:48:11.599Z,4.78
2023-01-19T07:51:18.113Z,4.25
2023-01-19T07:54:20.948Z,2.10
2023-01-19T07:57:24.233Z,4.17
2023-01-19T08:00:26.621Z,2.35
2023-01-19T08:03:28.668Z,5.22
2023-01-19T08:06:35.400Z,6.32
2023-01-19T08:09:37.440Z,4.20
2023-01-19T08:12:39.706Z,4.20
2023-01-19T08:15:41.830Z,6.20
2023-01-19T08:18:44.084Z,4.22
2023-01-19T08:21:46.577Z,4.20
2023-01-19T08:24:50.381Z,3.83
2023-01-19T08:27:54.979Z,2.73
2023-01-19T08:30:57.858Z,4.78
2023-01-19T08:34:00.171Z,4.32
2023-01-19T08:37:02.267Z,4.87
2023-01-19T08:40:04.773Z,5.50
2023-01-19T08:43:09.900Z,3.50
2023-01-19T08:46:12.664Z,4.40
2023-01-19T08:49:15.908Z,3.22
2023-01-19T08:52:18.020Z,3.33
2023-01-19T08:55:20.501Z,3.67
2023-01-19T08:58:22.650Z,5.17
2023-01-19T09:01:25.642Z,4.28
2023-01-19T09:04:28.063Z,4.53
2023-01-19T09:07:32.567Z,3.33
2023-01-19T09:10:39.656Z,4.70
2023-01-19T09:13:42.326Z,3.20
2023-01-19T09:16:44.587Z,4.75
2023-01-19T09:19:46.897Z,3.60
2023-01-19T09:22:49.519Z,4.97
2023-01-19T09:25:57.333Z,5.60
2023-01-19T09:28:59.991Z,3.67
2023-01-19T09:32:02.808Z,5.22
2023-01-19T09:35:05.468Z,3.58
2023-01-19T09:38:09.107Z,5.32
2023-01-19T09:41:22.736Z,2.27
2023-01-19T09:44:34.655Z,3.90
2023-01-19T09:47:38.503Z,4.45
2023-01-19T09:50:46.874Z,2.28
2023-01-19T09:54:12.159Z,5.35
2023-01-19T09:57:15.019Z,3.83
2023-01-19T10:00:18.752Z,5.27
2023-01-19T10:03:21.285Z,5.25
2023-01-19T10:06:23.801Z,5.80
2023-01-19T10:09:40.722Z,5.53
2023-01-19T10:13:04.871Z,4.73
2023-01-19T10:16:26.302Z,4.20
2023-01-19T10:19:41.367Z,6.07
2023-01-19T10:22:49.916Z,4.32
2023-01-19T10:25:52.614Z,5.03
2023-01-19T10:28:59.649Z,4.60
2023-01-19T10:32:33.619Z,6.00
2023-01-19T10:35:36.469Z,5.53
2023-01-19T10:38:38.639Z,5.15
2023-01-19T10:41:49.169Z,5.87
2023-01-19T10:44:51.315Z,5.17
2023-01-19T10:47:55.659Z,4.80
2023-01-19T10:51:05.986Z,3.53
2023-01-19T10:54:13.114Z,2.83
2023-01-19T10:57:26.542Z,4.20
2023-01-19T11:00:31.705Z,3.47
2023-01-19T11:03:33.797Z,2.97
2023-01-19T11:06:35.967Z,3.20
2023-01-19T11:09:38.082Z,4.22
2023-01-19T11:12:42.934Z,2.92
2023-01-19T11:15:47.503Z,3.80
2023-01-19T11:18:53.874Z,2.47
2023-01-19T11:22:21.872Z,4.85
2023-01-19T11:25:31.177Z,4.03
2023-01-19T11:28:37.252Z,4.80
2023-01-19T11:31:39.458Z,5.90
2023-01-19T11:34:41.685Z,5.07
2023-01-19T11:37:43.910Z,5.25
2023-01-19T11:40:57.710Z,3.45
2023-01-19T11:44:24.767Z,2.22
2023-01-19T11:47:42.937Z,5.50
2023-01-19T11:50:46.134Z,2.80
2023-01-19T11:53:52.588Z,4.65
2023-01-19T11:56:55.877Z,5.07
2023-01-19T12:00:03.630Z,4.35
2023-01-19T12:03:08.964Z,5.77
2023-01-19T12:06:18.437Z,3.73
2023-01-19T12:09:27.096Z,4.18
2023-01-19T12:12:35.539Z,5.70
2023-01-19T12:15:44.505Z,5.12
2023-01-19T12:18:59.556Z,3.53
2023-01-19T12:22:03.042Z,3.50
2023-01-19T12:25:25.356Z,3.85
2023-01-19T12:28:39.108Z,4.72
2023-01-19T12:31:43.365Z,4.53
2023-01-19T12:34:51.974Z,5.07
2023-01-19T12:37:54.140Z,2.07
2023-01-19T12:41:16.482Z,4.70
2023-01-19T12:44:25.119Z,3.97
2023-01-19T12:47:27.388Z,4.20
2023-01-19T12:50:38.068Z,3.73
2023-01-19T12:53:40.280Z,3.27
2023-01-19T12:56:42.542Z,4.28
2023-01-19T12:59:45.005Z,3.35
2023-01-19T13:02:55.996Z,5.07
2023-01-19T13:05:58.438Z,5.57
2023-01-19T13:09:01.456Z,5.37
2023-01-19T13:12:15.778Z,2.87
2023-01-19T13:15:35.935Z,3.35
2023-01-19T13:18:41.800Z,4.40
2023-01-19T13:21:47.018Z,3.37
2023-01-19T13:25:06.298Z,5.20
2023-01-19T13:28:10.330Z,4.25
2023-01-19T13:31:14.237Z,3.05
2023-01-19T13:34:23.103Z,3.97
2023-01-19T13:37:45.963Z,4.70
2023-01-19T13:40:48.859Z,4.73
2023-01-19T13:44:32.201Z,5.72
2023-01-19T13:47:46.924Z,3.03
2023-01-19T13:51:02.995Z,2.28
2023-01-19T13:54:06.372Z,5.20
2023-01-19T13:57:27.155Z,4.60
2023-01-19T14:00:31.063Z,5.10
2023-01-19T14:03:33.325Z,5.20
2023-01-19T14:06:44.682Z,5.20
2023-01-19T14:09:46.772Z,5.30
2023-01-19T14:13:02.914Z,5.23
2023-01-19T14:16:07.977Z,4.30
2023-01-19T14:19:10.199Z,4.50
2023-01-19T14:22:12.322Z,3.83
2023-01-19T14:25:29.763Z,3.20
2023-01-19T14:28:40.352Z,4.60
2023-01-19T14:31:48.837Z,5.20
2023-01-19T14:35:05.912Z,3.08
2023-01-19T14:38:14.284Z,3.28
2023-01-19T14:41:37.552Z,5.10
2023-01-19T14:44:40.455Z,5.20
2023-01-19T14:47:45.564Z,4.37
2023-01-19T14:51:02.338Z,3.55
2023-01-19T14:54:05.493Z,3.90
2023-01-19T14:57:13.236Z,4.63
2023-01-19T15:00:20.348Z,4.07
2023-01-19T15:03:26.829Z,4.53
2023-01-19T15:06:38.416Z,5.68
2023-01-19T15:09:41.074Z,5.45
2023-01-19T15:12:43.477Z,4.03
2023-01-19T15:15:45.733Z,6.43
2023-01-19T15:18:47.915Z,5.68
2023-01-19T15:21:51.445Z,5.82
2023-01-19T15:24:57.725Z,7.70
2023-01-19T15:28:00.239Z,8.80
2023-01-19T15:31:02.593Z,8.00
2023-01-19T15:34:04.653Z,8.05
2023-01-19T15:37:06.995Z,13.25
2023-01-19T15:40:11.403Z,7.50
2023-01-19T15:43:13.597Z,9.20
2023-01-19T15:46:18.707Z,9.70
2023-01-19T15:49:21.752Z,10.77
2023-01-19T15:52:23.900Z,7.68
2023-01-19T15:55:26.097Z,7.32
2023-01-19T15:58:28.271Z,6.47
2023-01-19T16:01:34.810Z,6.17
2023-01-19T16:04:36.907Z,6.47
2023-01-19T16:07:39.081Z,4.95
2023-01-19T16:10:42.698Z,5.20
2023-01-19T16:13:46.366Z,5.77
2023-01-19T16:16:49.367Z,4.87
2023-01-19T16:19:51.656Z,6.10
2023-01-19T16:22:56.516Z,5.40
2023-01-19T16:26:09.741Z,5.40
2023-01-19T16:29:11.975Z,5.97
2023-01-19T16:32:15.212Z,6.00
2023-01-19T16:35:17.646Z,5.95
2023-01-19T16:38:21.989Z,5.85
2023-01-19T16:41:24.411Z,6.10
2023-01-19T16:44:26.798Z,6.20
2023-01-19T16:47:28.922Z,5.97
2023-01-19T16:50:31.070Z,6.30
2023-01-19T16:53:37.202Z,6.97
2023-01-19T16:56:41.649Z,7.87
2023-01-19T16:59:45.287Z,7.53
2023-01-19T17:02:48.783Z,11.30
2023-01-19T17:05:53.172Z,12.57
2023-01-19T17:08:55.779Z,20.23
2023-01-19T17:11:58.588Z,15.30
2023-01-19T17:15:02.512Z,10.10
2023-01-19T17:18:07.200Z,12.53
2023-01-19T17:21:10.995Z,16.37
2023-01-19T17:24:14.243Z,15.18
2023-01-19T17:27:17.657Z,15.38
2023-01-19T17:30:20.873Z,11.03
2023-01-19T17:33:25.509Z,11.03
2023-01-19T17:36:32.688Z,11.43
2023-01-19T17:39:35.805Z,8.48
2023-01-19T17:42:43.428Z,12.20
2023-01-19T17:45:46.537Z,12.67
2023-01-19T17:49:02.380Z,11.97
2023-01-19T17:52:05.974Z,7.18
2023-01-19T17:55:09.666Z,7.72
2023-01-19T17:58:14.375Z,8.23
2023-01-19T18:01:24.029Z,9.07
2023-01-19T18:04:29.164Z,10.93
2023-01-19T18:07:33.519Z,8.90
2023-01-19T18:10:38.006Z,9.73
2023-01-19T18:13:43.791Z,8.85
2023-01-19T18:16:47.242Z,10.77
2023-01-19T18:19:52.587Z,9.00
2023-01-19T18:22:56.949Z,7.68
2023-01-19T18:26:11.589Z,9.45
2023-01-19T18:29:17.216Z,9.05
2023-01-19T18:32:21.313Z,9.47
2023-01-19T18:35:24.831Z,8.43
2023-01-19T18:38:29.284Z,9.80
2023-01-19T18:41:36.170Z,10.05
2023-01-19T18:44:39.269Z,10.52
2023-01-19T18:47:42.883Z,10.27
2023-01-19T18:50:46.922Z,10.50
2023-01-19T18:53:52.114Z,10.60
2023-01-19T18:56:56.102Z,18.70
2023-01-19T18:59:59.891Z,10.23
2023-01-19T19:03:06.583Z,10.33
2023-01-19T19:06:11.338Z,12.00
2023-01-19T19:09:15.886Z,29.02
2023-01-19T19:12:20.431Z,19.02
2023-01-19T19:15:23.515Z,16.98
2023-01-19T19:18:26.967Z,21.40
2023-01-19T19:21:30.722Z,17.15
2023-01-19T19:24:34.536Z,12.10
2023-01-19T19:27:38.770Z,12.75
2023-01-19T19:30:42.114Z,12.95
2023-01-19T19:33:46.249Z,8.33
2023-01-19T19:36:50.053Z,11.23
2023-01-19T19:39:53.193Z,11.32
2023-01-19T19:42:58.729Z,10.23
2023-01-19T19:46:11.139Z,14.48
2023-01-19T19:49:14.761Z,13.80
2023-01-19T19:52:18.251Z,14.90
2023-01-19T19:55:21.782Z,13.02
2023-01-19T19:58:26.290Z,12.18
2023-01-19T20:01:33.797Z,11.98
2023-01-19T20:04:39.867Z,11.57
2023-01-19T20:07:47.734Z,11.70
2023-01-19T20:10:51.624Z,11.80
2023-01-19T20:13:55.950Z,14.98
2023-01-19T20:16:59.607Z,11.68
2023-01-19T20:20:04.599Z,13.23
2023-01-19T20:23:09.649Z,18.10
2023-01-19T20:26:15.361Z,14.80
2023-01-19T20:29:20.694Z,12.93
2023-01-19T20:32:25.757Z,15.85
2023-01-19T20:35:31.471Z,15.80
2023-01-19T20:38:35.032Z,15.68
2023-01-19T20:41:43.926Z,17.33
2023-01-19T20:44:47.398Z,13.95
2023-01-19T20:47:51.761Z,14.20
2023-01-19T20:51:01.238Z,14.37
2023-01-19T20:54:04.821Z,10.70
2023-01-19T20:57:08.457Z,11.05
2023-01-19T21:00:14.605Z,13.25
2023-01-19T21:03:19.665Z,9.90
2023-01-19T21:06:25.567Z,8.47
2023-01-19T21:09:28.584Z,9.00
2023-01-19T21:12:31.168Z,8.30
2023-01-19T21:15:33.771Z,8.38
2023-01-19T21:18:36.187Z,8.77
2023-01-19T21:21:38.730Z,9.07
2023-01-19T21:24:42.175Z,9.23
2023-01-19T21:27:46.514Z,9.23
2023-01-19T21:30:50.293Z,8.85
2023-01-19T21:33:54.474Z,8.57
2023-01-19T21:36:56.782Z,10.03
2023-01-19T21:39:59.133Z,9.18
2023-01-19T21:43:01.367Z,8.77
2023-01-19T21:46:11.110Z,9.85
2023-01-19T21:49:18.356Z,9.57
2023-01-19T21:52:20.597Z,8.83
2023-01-19T21:55:22.659Z,9.60
2023-01-19T21:58:24.900Z,12.37
2023-01-19T22:01:27.094Z,12.73
2023-01-19T22:04:29.941Z,12.82
2023-01-19T22:07:33.131Z,13.67
2023-01-19T22:10:37.440Z,13.48
2023-01-19T22:13:40.563Z,13.18
2023-01-19T22:16:42.740Z,11.10
2023-01-19T22:19:46.613Z,11.02
2023-01-19T22:22:48.712Z,10.53
2023-01-19T22:25:50.763Z,10.70
2023-01-19T22:28:57.226Z,11.68
2023-01-19T22:31:59.441Z,10.88
2023-01-19T22:35:03.427Z,13.20
2023-01-19T22:38:05.795Z,10.87
2023-01-19T22:41:16.624Z,10.60
2023-01-19T22:44:21.205Z,10.43
2023-01-19T22:47:23.260Z,10.52
2023-01-19T22:50:25.350Z,8.80
2023-01-19T22:53:28.022Z,10.93
2023-01-19T22:56:32.208Z,9.85
2023-01-19T22:59:34.316Z,9.48
2023-01-19T23:02:36.450Z,10.07
2023-01-19T23:05:38.825Z,8.38
2023-01-19T23:08:41.926Z,7.93
2023-01-19T23:11:48.585Z,6.82
2023-01-19T23:14:50.646Z,8.18
2023-01-19T23:17:53.764Z,8.75
2023-01-19T23:20:56.272Z,8.18
2023-01-19T23:24:04.204Z,7.47
2023-01-19T23:27:06.408Z,8.00
2023-01-19T23:30:09.215Z,8.60
2023-01-19T23:33:11.328Z,7.70
2023-01-19T23:36:14.602Z,8.65
2023-01-19T23:39:20.136Z,11.67
2023-01-19T23:42:22.513Z,12.07
2023-01-19T23:45:24.687Z,9.93
2023-01-19T23:48:26.849Z,9.82
2023-01-19T23:51:31.967Z,11.15
2023-01-19T23:54:34.189Z,11.13
2023-01-19T23:57:36.345Z,9.40
